createdAt,value
2023-06-08T00:01:16.816Z,59.08
2023-06-08T00:03:47.772Z,59.13
2023-06-08T00:06:16.719Z,59.23
2023-06-08T00:08:45.263Z,59.34
2023-06-08T00:11:14.437Z,59.42
2023-06-08T00:13:42.222Z,59.36
2023-06-08T00:16:09.647Z,59.44
2023-06-08T00:18:37.901Z,59.66
2023-06-08T00:21:05.588Z,59.88
2023-06-08T00:23:33.425Z,59.68
2023-06-08T00:26:01.357Z,59.86
2023-06-08T00:28:29.622Z,60.12
2023-06-08T00:30:57.365Z,60.25
2023-06-08T00:33:24.481Z,60.21
2023-06-08T00:35:51.802Z,60.33
2023-06-08T00:38:18.935Z,60.56
2023-06-08T00:40:46.624Z,60.72
2023-06-08T00:43:13.883Z,60.76
2023-06-08T00:45:41.184Z,61.08
2023-06-08T00:48:10.408Z,61.23
2023-06-08T00:50:38.041Z,61.29
2023-06-08T00:53:05.514Z,61.56
2023-06-08T00:55:34.983Z,61.87
2023-06-08T00:58:03.017Z,61.93
2023-06-08T01:00:31.248Z,62.12
2023-06-08T01:03:00.406Z,62.06
2023-06-08T01:05:27.876Z,62.27
2023-06-08T01:08:14.968Z,62.43
2023-06-08T01:10:48.788Z,62.65
2023-06-08T01:13:19.838Z,62.78
2023-06-08T01:15:54.088Z,63.02
2023-06-08T01:18:25.252Z,63.03
2023-06-08T01:21:08.465Z,63.26
2023-06-08T01:23:46.412Z,63.33
2023-06-08T01:26:17.315Z,63.42
2023-06-08T01:28:44.529Z,63.58
2023-06-08T01:31:11.727Z,63.62
2023-06-08T01:33:39.006Z,63.65
2023-06-08T01:36:13.442Z,63.86
2023-06-08T01:38:50.815Z,64.05
2023-06-08T01:41:24.643Z,64.16
2023-06-08T01:43:54.308Z,64.27
2023-06-08T01:46:24.010Z,64.42
2023-06-08T01:48:54.071Z,64.52
2023-06-08T01:51:22.079Z,64.60
2023-06-08T01:53:49.202Z,64.77
2023-06-08T01:56:18.058Z,64.91
2023-06-08T01:58:45.503Z,65.14
2023-06-08T02:01:12.743Z,65.16
2023-06-08T02:03:40.248Z,65.23
2023-06-08T02:06:07.469Z,65.47
2023-06-08T02:08:34.687Z,65.46
2023-06-08T02:11:02.462Z,65.67
2023-06-08T02:13:30.277Z,65.77
2023-06-08T02:15:59.055Z,65.89
2023-06-08T02:18:28.116Z,66.11
2023-06-08T02:20:55.358Z,66.53
2023-06-08T02:23:22.785Z,66.56
2023-06-08T02:25:53.372Z,66.83
2023-06-08T02:28:22.176Z,67.14
2023-06-08T02:30:51.938Z,67.19
2023-06-08T02:33:19.209Z,67.23
2023-06-08T02:35:47.917Z,67.45
2023-06-08T02:38:16.432Z,67.78
2023-06-08T02:40:43.948Z,68.00
2023-06-08T02:43:11.171Z,68.12
2023-06-08T02:45:40.820Z,68.29
2023-06-08T02:48:08.798Z,68.40
2023-06-08T02:50:36.804Z,68.49
2023-06-08T02:53:05.088Z,68.38
2023-06-08T02:55:36.367Z,68.45
2023-06-08T02:58:06.867Z,68.56
2023-06-08T03:00:35.452Z,68.54
2023-06-08T03:03:24.674Z,68.50
2023-06-08T03:06:00.093Z,68.60
2023-06-08T03:08:29.818Z,68.40
2023-06-08T03:10:57.200Z,68.59
2023-06-08T03:13:24.526Z,68.39
2023-06-08T03:15:54.275Z,68.69
2023-06-08T03:18:21.697Z,68.54
2023-06-08T03:20:53.093Z,68.70
2023-06-08T03:23:21.369Z,68.58
2023-06-08T03:25:50.678Z,68.52
2023-06-08T03:28:17.986Z,68.61
2023-06-08T03:30:47.211Z,68.69
2023-06-08T03:33:16.491Z,68.69
2023-06-08T03:35:54.906Z,68.85
2023-06-08T03:38:42.900Z,68.93
2023-06-08T03:41:14.493Z,69.10
2023-06-08T03:43:42.789Z,68.99
2023-06-08T03:46:10.407Z,68.88
2023-06-08T03:48:38.516Z,68.82
2023-06-08T03:51:06.334Z,68.87
2023-06-08T03:53:34.597Z,68.76
2023-06-08T03:56:02.061Z,68.75
2023-06-08T03:58:31.852Z,68.75
2023-06-08T04:00:59.168Z,68.75
2023-06-08T04:03:27.513Z,68.61
2023-06-08T04:05:54.961Z,68.49
2023-06-08T04:08:23.174Z,68.30
2023-06-08T04:10:51.284Z,68.07
2023-06-08T04:13:18.704Z,68.10
2023-06-08T04:15:46.687Z,67.91
2023-06-08T04:18:17.223Z,67.88
2023-06-08T04:20:44.915Z,67.73
2023-06-08T04:23:13.472Z,67.52
2023-06-08T04:25:42.025Z,67.40
2023-06-08T04:28:09.353Z,67.13
2023-06-08T04:30:36.519Z,66.81
2023-06-08T04:33:04.655Z,66.61
2023-06-08T04:35:33.626Z,66.31
2023-06-08T04:38:02.795Z,66.08
2023-06-08T04:40:34.632Z,65.80
2023-06-08T04:43:03.576Z,65.69
2023-06-08T04:45:34.374Z,65.63
2023-06-08T04:48:02.123Z,65.61
2023-06-08T04:50:30.420Z,65.64
2023-06-08T04:52:58.627Z,65.48
2023-06-08T04:55:25.887Z,65.34
2023-06-08T04:57:53.055Z,65.23
2023-06-08T05:00:21.887Z,65.06
2023-06-08T05:02:49.150Z,64.93
2023-06-08T05:05:16.773Z,64.82
2023-06-08T05:07:45.132Z,64.49
2023-06-08T05:10:13.226Z,64.47
2023-06-08T05:12:40.543Z,63.94
2023-06-08T05:15:09.760Z,63.23
2023-06-08T05:17:36.918Z,63.09
2023-06-08T05:20:05.203Z,62.63
2023-06-08T05:22:32.661Z,62.28
2023-06-08T05:25:00.039Z,62.07
2023-06-08T05:27:27.253Z,61.66
2023-06-08T05:29:54.459Z,60.89
2023-06-08T05:32:22.922Z,60.19
2023-06-08T05:34:51.949Z,59.99
2023-06-08T05:37:19.242Z,59.92
2023-06-08T05:39:46.573Z,59.30
2023-06-08T05:42:13.829Z,58.90
2023-06-08T05:44:41.140Z,58.43
2023-06-08T05:47:09.420Z,58.23
2023-06-08T05:49:37.182Z,57.67
2023-06-08T05:52:04.856Z,57.20
2023-06-08T05:54:32.209Z,56.58
2023-06-08T05:56:59.587Z,55.01
2023-06-08T05:59:27.472Z,52.17
2023-06-08T06:01:55.418Z,48.98
2023-06-08T06:04:35.815Z,46.13
2023-06-08T06:07:04.712Z,44.23
2023-06-08T06:09:31.832Z,42.35
2023-06-08T06:11:58.907Z,40.89
2023-06-08T06:14:26.366Z,39.07
2023-06-08T06:17:06.185Z,36.20
2023-06-08T06:19:38.345Z,33.94
2023-06-08T06:22:06.624Z,32.52
2023-06-08T06:24:33.765Z,31.69
2023-06-08T06:27:01.360Z,30.97
2023-06-08T06:29:28.587Z,29.85
2023-06-08T06:31:55.891Z,28.84
2023-06-08T06:34:23.687Z,28.25
2023-06-08T06:36:51.064Z,27.21
2023-06-08T06:39:20.180Z,26.86
2023-06-08T06:41:47.633Z,25.64
2023-06-08T06:44:17.171Z,25.15
2023-06-08T06:46:44.578Z,24.45
2023-06-08T06:49:12.063Z,23.70
2023-06-08T06:51:40.708Z,22.97
2023-06-08T06:54:09.161Z,22.52
2023-06-08T06:56:36.536Z,22.15
2023-06-08T06:59:04.919Z,22.00
2023-06-08T07:01:37.592Z,20.81
2023-06-08T07:04:07.369Z,20.22
2023-06-08T07:06:34.703Z,20.39
2023-06-08T07:09:02.104Z,20.51
2023-06-08T07:11:30.535Z,20.17
2023-06-08T07:13:58.389Z,19.57
2023-06-08T07:16:27.593Z,18.71
2023-06-08T07:18:55.466Z,18.87
2023-06-08T07:21:23.879Z,19.11
2023-06-08T07:24:11.752Z,19.00
2023-06-08T07:26:44.849Z,19.10
2023-06-08T07:29:12.200Z,18.86
2023-06-08T07:31:40.487Z,18.36
2023-06-08T07:34:08.588Z,18.09
2023-06-08T07:36:36.716Z,17.90
2023-06-08T07:39:04.796Z,17.75
2023-06-08T07:41:35.318Z,17.47
2023-06-08T07:44:03.620Z,17.62
2023-06-08T07:46:32.074Z,17.83
2023-06-08T07:48:59.274Z,17.47
2023-06-08T07:51:26.582Z,17.28
2023-06-08T07:53:53.876Z,16.94
2023-06-08T07:56:22.780Z,16.86
2023-06-08T07:58:50.835Z,17.24
2023-06-08T08:01:18.561Z,17.24
2023-06-08T08:03:47.013Z,17.54
2023-06-08T08:06:14.891Z,17.46
2023-06-08T08:08:42.230Z,17.86
2023-06-08T08:11:09.418Z,17.71
2023-06-08T08:13:36.648Z,17.64
2023-06-08T08:16:04.120Z,17.72
2023-06-08T08:18:31.328Z,18.31
2023-06-08T08:20:58.554Z,18.12
2023-06-08T08:23:25.844Z,18.45
2023-06-08T08:25:53.775Z,18.59
2023-06-08T08:28:20.935Z,18.17
2023-06-08T08:30:48.111Z,17.94
2023-06-08T08:33:17.919Z,18.20
2023-06-08T08:35:45.822Z,18.58
2023-06-08T08:38:12.845Z,18.61
2023-06-08T08:40:42.485Z,18.86
2023-06-08T08:43:18.309Z,19.13
2023-06-08T08:45:48.063Z,18.88
2023-06-08T08:48:18.557Z,18.60
2023-06-08T08:50:51.350Z,18.18
2023-06-08T08:53:18.925Z,18.32
2023-06-08T08:55:49.971Z,18.71
2023-06-08T08:58:19.878Z,18.58
2023-06-08T09:00:51.433Z,19.06
2023-06-08T09:03:19.044Z,18.88
2023-06-08T09:05:47.225Z,18.49
2023-06-08T09:08:14.526Z,18.92
2023-06-08T09:10:42.098Z,19.51
2023-06-08T09:13:09.718Z,19.55
2023-06-08T09:15:39.050Z,19.62
2023-06-08T09:18:18.924Z,19.99
2023-06-08T09:20:47.195Z,19.93
2023-06-08T09:23:21.868Z,20.06
2023-06-08T09:25:49.500Z,20.43
2023-06-08T09:28:27.165Z,20.69
2023-06-08T09:30:56.987Z,21.25
2023-06-08T09:33:26.334Z,20.80
2023-06-08T09:36:09.560Z,20.62
2023-06-08T09:38:36.984Z,20.93
2023-06-08T09:41:24.147Z,20.76
2023-06-08T09:43:54.839Z,20.74
2023-06-08T09:49:24.863Z,20.86
2023-06-08T09:51:57.761Z,20.69
2023-06-08T09:54:26.758Z,20.68
2023-06-08T09:56:59.032Z,20.39
2023-06-08T09:59:36.066Z,20.79
2023-06-08T10:02:16.638Z,20.66
2023-06-08T10:04:47.593Z,20.60
2023-06-08T10:07:20.765Z,20.64
2023-06-08T10:09:50.925Z,20.74
2023-06-08T10:12:19.361Z,20.72
2023-06-08T10:14:46.856Z,20.68
2023-06-08T10:17:16.649Z,20.95
2023-06-08T10:19:45.090Z,21.23
2023-06-08T10:22:12.730Z,21.15
2023-06-08T10:24:49.047Z,20.92
2023-06-08T10:27:34.357Z,21.03
2023-06-08T10:30:05.165Z,20.29
2023-06-08T10:32:38.107Z,20.55
2023-06-08T10:35:09.727Z,21.15
2023-06-08T10:37:39.995Z,21.99
2023-06-08T10:40:13.700Z,22.38
2023-06-08T10:42:52.113Z,22.64
2023-06-08T10:45:31.758Z,22.99
2023-06-08T10:48:06.150Z,23.11
2023-06-08T10:50:38.916Z,22.56
2023-06-08T10:53:06.887Z,22.64
2023-06-08T10:55:34.239Z,22.96
2023-06-08T10:58:18.163Z,23.65
2023-06-08T11:00:48.208Z,24.18
2023-06-08T11:03:18.646Z,24.75
2023-06-08T11:05:51.318Z,24.64
2023-06-08T11:08:20.370Z,24.94
2023-06-08T11:10:53.265Z,24.79
2023-06-08T11:13:20.744Z,25.30
2023-06-08T11:15:49.373Z,25.66
2023-06-08T11:18:20.632Z,25.52
2023-06-08T11:20:48.951Z,25.22
2023-06-08T11:23:17.034Z,25.56
2023-06-08T11:25:46.089Z,26.05
2023-06-08T11:28:14.463Z,26.47
2023-06-08T11:30:42.332Z,26.82
2023-06-08T11:33:15.628Z,26.91
2023-06-08T11:35:43.925Z,27.15
2023-06-08T11:38:11.255Z,26.86
2023-06-08T11:40:43.256Z,26.59
2023-06-08T11:43:11.451Z,26.46
2023-06-08T11:45:40.490Z,26.78
2023-06-08T11:50:47.060Z,26.58
2023-06-08T11:53:17.771Z,26.50
2023-06-08T11:55:48.032Z,26.50
2023-06-08T11:58:15.873Z,26.82
2023-06-08T12:00:43.236Z,26.87
2023-06-08T12:03:13.138Z,26.93
2023-06-08T12:05:41.683Z,26.73
2023-06-08T12:08:16.366Z,27.08
2023-06-08T12:10:47.736Z,27.62
2023-06-08T12:13:17.679Z,28.15
2023-06-08T12:15:46.802Z,28.51
2023-06-08T12:18:16.129Z,28.50
2023-06-08T12:20:45.210Z,28.41
2023-06-08T12:23:13.644Z,28.20
2023-06-08T12:25:42.302Z,27.98
2023-06-08T12:28:18.544Z,27.93
2023-06-08T12:30:45.898Z,27.88
2023-06-08T12:33:18.793Z,27.63
2023-06-08T12:35:47.157Z,27.32
2023-06-08T12:38:14.411Z,27.43
2023-06-08T12:40:44.987Z,27.40
2023-06-08T12:43:12.730Z,27.75
2023-06-08T12:45:39.895Z,27.95
2023-06-08T12:48:07.369Z,27.39
2023-06-08T12:50:34.873Z,27.22
2023-06-08T12:53:02.458Z,27.05
2023-06-08T12:55:30.357Z,27.37
2023-06-08T12:57:57.890Z,27.24
2023-06-08T13:00:26.756Z,26.85
2023-06-08T13:02:54.296Z,26.78
2023-06-08T13:05:21.978Z,27.36
2023-06-08T13:07:51.669Z,27.46
2023-06-08T13:10:19.076Z,27.44
2023-06-08T13:12:47.271Z,27.53
2023-06-08T13:15:15.154Z,27.70
2023-06-08T13:17:43.374Z,27.87
2023-06-08T13:20:13.019Z,28.18
2023-06-08T13:22:40.368Z,28.36
2023-06-08T13:25:08.525Z,28.53
2023-06-08T13:27:36.321Z,28.17
2023-06-08T13:30:03.485Z,28.54
2023-06-08T13:32:32.322Z,28.94
2023-06-08T13:34:59.732Z,29.17
2023-06-08T13:37:27.351Z,29.12
2023-06-08T13:39:54.798Z,29.17
2023-06-08T13:42:22.493Z,29.20
2023-06-08T13:44:52.073Z,29.40
2023-06-08T13:47:19.304Z,29.46
2023-06-08T13:49:47.503Z,29.46
2023-06-08T13:52:15.453Z,29.20
2023-06-08T13:54:42.734Z,29.25
2023-06-08T13:57:10.661Z,29.15
2023-06-08T13:59:37.884Z,29.40
2023-06-08T14:02:05.526Z,29.58
2023-06-08T14:04:33.028Z,29.62
2023-06-08T14:07:00.237Z,30.00
2023-06-08T14:09:27.527Z,29.91
2023-06-08T14:11:54.933Z,29.85
2023-06-08T14:14:22.013Z,29.54
2023-06-08T14:16:49.679Z,29.50
2023-06-08T14:19:17.325Z,29.70
2023-06-08T14:21:46.792Z,29.88
2023-06-08T14:24:14.401Z,30.13
2023-06-08T14:26:42.039Z,29.91
2023-06-08T14:29:10.121Z,30.26
2023-06-08T14:31:37.287Z,29.87
2023-06-08T14:34:04.684Z,30.28
2023-06-08T14:36:31.851Z,30.34
2023-06-08T14:38:59.090Z,30.28
2023-06-08T14:41:27.215Z,30.46
2023-06-08T14:43:54.635Z,30.48
2023-06-08T14:46:22.035Z,30.26
2023-06-08T14:48:49.515Z,30.20
2023-06-08T14:51:36.378Z,30.32
2023-06-08T14:54:05.012Z,30.35
2023-06-08T14:56:32.201Z,30.31
2023-06-08T14:58:59.314Z,30.51
2023-06-08T15:01:26.715Z,30.83
2023-06-08T15:03:53.910Z,30.86
2023-06-08T15:06:21.263Z,31.19
2023-06-08T15:08:48.528Z,31.35
2023-06-08T15:11:18.183Z,31.50
2023-06-08T15:13:45.522Z,31.43
2023-06-08T15:16:13.701Z,31.25
2023-06-08T15:18:42.386Z,31.27
2023-06-08T15:21:09.881Z,31.20
2023-06-08T15:23:37.531Z,31.07
2023-06-08T15:26:05.082Z,31.45
2023-06-08T15:28:32.458Z,31.76
2023-06-08T15:30:59.929Z,31.63
2023-06-08T15:33:28.440Z,31.68
2023-06-08T15:35:55.866Z,31.73
2023-06-08T15:38:23.120Z,32.16
2023-06-08T15:40:50.422Z,32.10
2023-06-08T15:43:17.696Z,32.26
2023-06-08T15:45:46.653Z,32.08
2023-06-08T15:48:14.390Z,32.12
2023-06-08T15:50:41.501Z,32.22
2023-06-08T15:53:09.741Z,32.24
2023-06-08T15:55:36.873Z,32.31
2023-06-08T15:58:05.128Z,32.30
2023-06-08T16:00:32.466Z,32.23
2023-06-08T16:02:59.753Z,32.43
2023-06-08T16:05:27.240Z,32.32
2023-06-08T16:07:54.545Z,32.52
2023-06-08T16:10:21.958Z,32.51
2023-06-08T16:12:49.300Z,32.72
2023-06-08T16:15:17.199Z,32.92
2023-06-08T16:17:44.499Z,32.86
2023-06-08T16:20:13.720Z,33.29
2023-06-08T16:22:41.142Z,33.33
2023-06-08T16:25:10.064Z,33.48
2023-06-08T16:27:37.207Z,33.98
2023-06-08T16:30:05.301Z,34.24
2023-06-08T16:32:32.927Z,34.35
2023-06-08T16:35:00.183Z,34.63
2023-06-08T16:37:27.427Z,34.67
2023-06-08T16:39:54.745Z,34.70
2023-06-08T16:42:21.900Z,34.55
2023-06-08T16:44:49.143Z,34.86
2023-06-08T16:47:16.587Z,35.07
2023-06-08T16:49:43.775Z,35.11
2023-06-08T16:52:11.603Z,35.06
2023-06-08T16:54:38.717Z,35.23
2023-06-08T16:57:07.263Z,35.43
2023-06-08T16:59:34.660Z,35.47
2023-06-08T17:02:03.044Z,35.66
2023-06-08T17:04:31.075Z,36.12
2023-06-08T17:06:58.770Z,36.29
2023-06-08T17:09:26.282Z,36.37
2023-06-08T17:11:53.477Z,36.18
2023-06-08T17:14:20.714Z,36.43
2023-06-08T17:16:49.378Z,36.62
2023-06-08T17:19:16.618Z,36.43
2023-06-08T17:21:44.285Z,36.67
2023-06-08T17:24:11.963Z,36.68
2023-06-08T17:26:40.722Z,36.73
2023-06-08T17:29:08.073Z,36.89
2023-06-08T17:31:39.786Z,36.98
2023-06-08T17:34:07.391Z,36.98
2023-06-08T17:36:34.679Z,37.16
2023-06-08T17:39:01.957Z,37.10
2023-06-08T17:41:29.289Z,37.20
2023-06-08T17:43:56.597Z,37.23
2023-06-08T17:46:23.926Z,37.29
2023-06-08T17:48:51.153Z,37.27
2023-06-08T17:51:19.491Z,37.22
2023-06-08T17:53:46.822Z,37.35
2023-06-08T17:56:16.792Z,37.48
2023-06-08T17:58:44.524Z,37.37
2023-06-08T18:01:12.021Z,37.52
2023-06-08T18:03:43.398Z,37.52
2023-06-08T18:06:24.116Z,37.57
2023-06-08T18:08:53.228Z,37.62
2023-06-08T18:11:22.303Z,37.82
2023-06-08T18:13:49.513Z,37.86
2023-06-08T18:16:16.736Z,38.13
2023-06-08T18:18:44.122Z,38.20
2023-06-08T18:21:12.934Z,38.60
2023-06-08T18:23:40.156Z,38.79
2023-06-08T18:26:07.500Z,38.92
2023-06-08T18:28:34.725Z,39.20
2023-06-08T18:31:02.005Z,39.16
2023-06-08T18:33:29.521Z,39.32
2023-06-08T18:35:56.580Z,39.35
2023-06-08T18:38:24.417Z,39.37
2023-06-08T18:40:52.010Z,39.57
2023-06-08T18:43:19.191Z,39.71
2023-06-08T18:45:46.800Z,39.77
2023-06-08T18:48:14.636Z,40.04
2023-06-08T18:50:42.501Z,40.26
2023-06-08T18:53:10.262Z,40.17
2023-06-08T18:55:37.408Z,40.31
2023-06-08T18:58:04.608Z,40.46
2023-06-08T19:00:31.858Z,40.66
2023-06-08T19:02:59.720Z,40.67
2023-06-08T19:05:27.238Z,40.86
2023-06-08T19:07:54.441Z,40.81
2023-06-08T19:10:21.971Z,41.00
2023-06-08T19:12:49.239Z,41.12
2023-06-08T19:15:16.308Z,41.21
2023-06-08T19:17:43.659Z,41.52
2023-06-08T19:20:12.858Z,41.65
2023-06-08T19:22:40.050Z,41.69
2023-06-08T19:25:08.784Z,41.91
2023-06-08T19:27:35.824Z,42.02
2023-06-08T19:30:03.062Z,42.07
2023-06-08T19:32:30.533Z,42.20
2023-06-08T19:34:57.701Z,42.30
2023-06-08T19:37:24.909Z,42.38
2023-06-08T19:39:52.822Z,42.60
2023-06-08T19:42:19.958Z,42.80
2023-06-08T19:44:47.840Z,42.79
2023-06-08T19:47:15.181Z,42.79
2023-06-08T19:49:42.708Z,42.81
2023-06-08T19:52:10.851Z,42.95
2023-06-08T19:54:38.145Z,42.94
2023-06-08T19:57:06.717Z,42.97
2023-06-08T19:59:36.999Z,43.14
2023-06-08T20:02:04.386Z,43.10
2023-06-08T20:04:31.585Z,43.23
2023-06-08T20:07:04.176Z,43.19
2023-06-08T20:09:33.657Z,43.37
2023-06-08T20:12:00.807Z,43.42
2023-06-08T20:14:28.292Z,43.56
2023-06-08T20:16:57.643Z,43.60
2023-06-08T20:19:25.505Z,43.61
2023-06-08T20:21:52.821Z,43.58
2023-06-08T20:24:20.311Z,43.64
2023-06-08T20:26:48.148Z,43.80
2023-06-08T20:29:16.398Z,43.70
2023-06-08T20:31:43.872Z,43.90
2023-06-08T20:34:13.563Z,43.88
2023-06-08T20:36:40.941Z,44.11
2023-06-08T20:39:08.658Z,44.29
2023-06-08T20:41:36.901Z,44.43
2023-06-08T20:44:06.145Z,44.43
2023-06-08T20:46:34.367Z,44.43
2023-06-08T20:49:04.228Z,44.62
2023-06-08T20:51:31.677Z,44.77
2023-06-08T20:53:59.030Z,44.86
2023-06-08T20:56:27.717Z,44.98
2023-06-08T20:58:54.921Z,45.12
2023-06-08T21:01:23.964Z,45.29
2023-06-08T21:03:52.474Z,45.36
2023-06-08T21:06:19.734Z,45.64
2023-06-08T21:08:47.080Z,45.76
2023-06-08T21:11:14.719Z,45.69
2023-06-08T21:13:41.976Z,45.96
2023-06-08T21:16:09.992Z,46.05
2023-06-08T21:18:37.524Z,46.20
2023-06-08T21:21:04.999Z,46.15
2023-06-08T21:23:32.761Z,46.28
2023-06-08T21:26:00.404Z,46.50
2023-06-08T21:28:27.678Z,46.66
2023-06-08T21:30:56.193Z,46.65
2023-06-08T21:33:23.983Z,46.91
2023-06-08T21:36:06.450Z,46.93
2023-06-08T21:38:37.623Z,47.02
2023-06-08T21:41:04.898Z,47.07
2023-06-08T21:43:32.170Z,47.32
2023-06-08T21:46:02.724Z,47.38
2023-06-08T21:48:33.345Z,47.36
2023-06-08T21:51:01.135Z,47.41
2023-06-08T21:53:28.662Z,47.70
2023-06-08T21:55:55.967Z,47.78
2023-06-08T21:58:22.994Z,47.80
2023-06-08T22:00:50.598Z,47.84
2023-06-08T22:03:18.143Z,47.99
2023-06-08T22:05:46.450Z,48.13
2023-06-08T22:08:26.629Z,48.34
2023-06-08T22:10:54.709Z,48.46
2023-06-08T22:13:22.108Z,48.57
2023-06-08T22:15:49.595Z,48.71
2023-06-08T22:18:17.508Z,48.80
2023-06-08T22:20:45.443Z,48.96
2023-06-08T22:23:12.759Z,49.24
2023-06-08T22:25:42.619Z,49.21
2023-06-08T22:28:13.912Z,49.50
2023-06-08T22:30:41.802Z,49.33
2023-06-08T22:33:09.489Z,49.70
2023-06-08T22:35:36.840Z,49.69
2023-06-08T22:38:05.903Z,49.74
2023-06-08T22:40:33.368Z,49.89
2023-06-08T22:43:00.560Z,49.90
2023-06-08T22:45:27.884Z,50.19
2023-06-08T22:47:55.216Z,50.33
2023-06-08T22:50:23.968Z,50.47
2023-06-08T22:52:53.929Z,50.74
2023-06-08T22:55:21.378Z,50.72
2023-06-08T22:57:48.459Z,50.89
2023-06-08T23:00:17.929Z,50.84
2023-06-08T23:02:45.194Z,50.94
2023-06-08T23:05:14.135Z,51.04
2023-06-08T23:07:44.851Z,51.01
2023-06-08T23:10:15.892Z,51.10
2023-06-08T23:12:44.181Z,51.22
2023-06-08T23:15:17.479Z,51.43
2023-06-08T23:17:45.412Z,51.45
2023-06-08T23:20:14.112Z,51.56
2023-06-08T23:22:41.381Z,51.55
2023-06-08T23:25:14.581Z,51.44
2023-06-08T23:27:41.765Z,51.72
2023-06-08T23:30:11.087Z,51.67
2023-06-08T23:32:38.457Z,51.70
2023-06-08T23:35:06.551Z,51.99
2023-06-08T23:37:34.577Z,52.13
2023-06-08T23:40:01.730Z,52.12
2023-06-08T23:42:28.907Z,52.27
2023-06-08T23:44:56.989Z,52.32
2023-06-08T23:47:24.868Z,52.29
2023-06-08T23:49:52.082Z,52.53
2023-06-08T23:52:20.530Z,52.62
2023-06-08T23:54:47.885Z,52.82
2023-06-08T23:57:15.193Z,52.94
2023-06-08T23:59:42.512Z,53.14
